createdAt,value
2018-05-19T00:02:14.881Z,11.17
2018-05-19T00:04:43.476Z,11.30
2018-05-19T00:07:12.075Z,12.40
2018-05-19T00:09:39.945Z,12.10
2018-05-19T00:12:07.851Z,10.47
2018-05-19T00:14:35.748Z,14.50
2018-05-19T00:17:04.459Z,10.20
2018-05-19T00:19:32.334Z,14.00
2018-05-19T00:22:00.233Z,11.07
2018-05-19T00:24:28.063Z,13.87
2018-05-19T00:26:55.974Z,11.37
2018-05-19T00:29:23.899Z,14.77
2018-05-19T00:31:51.739Z,11.63
2018-05-19T00:34:20.368Z,11.90
2018-05-19T00:36:48.231Z,11.73
2018-05-19T00:39:16.099Z,15.53
2018-05-19T00:41:43.977Z,12.33
2018-05-19T00:44:11.800Z,10.60
2018-05-19T00:46:39.651Z,10.73
2018-05-19T00:49:08.248Z,14.03
2018-05-19T00:51:36.131Z,12.73
2018-05-19T00:54:04.089Z,11.27
2018-05-19T00:56:32.024Z,12.80
2018-05-19T00:58:59.869Z,11.90
2018-05-19T01:01:27.719Z,12.37
2018-05-19T01:03:55.567Z,12.80
2018-05-19T01:06:23.480Z,11.93
2018-05-19T01:08:51.430Z,10.93
2018-05-19T01:11:20.000Z,10.67
2018-05-19T01:13:47.872Z,11.97
2018-05-19T01:16:15.849Z,11.90
2018-05-19T01:18:43.681Z,11.80
2018-05-19T01:21:11.554Z,13.33
2018-05-19T01:23:39.441Z,11.73
2018-05-19T01:26:07.289Z,11.70
2018-05-19T01:28:35.226Z,12.10
2018-05-19T01:31:03.877Z,12.07
2018-05-19T01:33:31.805Z,12.33
2018-05-19T01:35:59.665Z,12.90
2018-05-19T01:38:27.533Z,13.70
2018-05-19T01:40:55.399Z,12.40
2018-05-19T01:43:23.259Z,12.50
2018-05-19T01:45:51.147Z,12.10
2018-05-19T01:48:19.065Z,12.30
2018-05-19T01:50:46.962Z,12.97
2018-05-19T01:53:14.821Z,12.27
2018-05-19T01:55:42.695Z,16.40
2018-05-19T01:58:10.613Z,13.13
2018-05-19T02:00:38.556Z,12.60
2018-05-19T02:03:06.482Z,11.30
2018-05-19T02:05:34.329Z,12.90
2018-05-19T02:08:02.215Z,13.70
2018-05-19T02:10:30.908Z,16.27
2018-05-19T02:12:58.798Z,12.90
2018-05-19T02:15:26.633Z,13.53
2018-05-19T02:17:55.344Z,12.67
2018-05-19T02:20:23.213Z,13.53
2018-05-19T02:22:51.135Z,12.53
2018-05-19T02:25:18.979Z,12.93
2018-05-19T02:27:46.845Z,13.60
2018-05-19T02:30:14.820Z,12.73
2018-05-19T02:32:42.782Z,11.90
2018-05-19T02:35:10.679Z,13.10
2018-05-19T02:37:39.377Z,12.43
2018-05-19T02:40:08.859Z,13.70
2018-05-19T02:42:36.723Z,12.60
2018-05-19T02:45:04.723Z,15.37
2018-05-19T02:47:32.594Z,14.23
2018-05-19T02:50:00.444Z,14.80
2018-05-19T02:52:29.103Z,15.03
2018-05-19T02:54:57.755Z,13.87
2018-05-19T02:57:25.655Z,13.40
2018-05-19T02:59:53.540Z,13.73
2018-05-19T03:02:22.214Z,13.97
2018-05-19T03:04:50.066Z,14.13
2018-05-19T03:07:18.054Z,14.33
2018-05-19T03:09:46.031Z,15.77
2018-05-19T03:12:14.733Z,13.50
2018-05-19T03:14:42.649Z,12.27
2018-05-19T03:17:10.594Z,15.43
2018-05-19T03:19:38.413Z,12.90
2018-05-19T03:22:06.310Z,13.20
2018-05-19T03:24:34.257Z,12.63
2018-05-19T03:27:02.923Z,14.43
2018-05-19T03:29:30.785Z,15.33
2018-05-19T03:31:58.623Z,14.90
2018-05-19T03:34:26.549Z,13.67
2018-05-19T03:36:55.166Z,14.03
2018-05-19T03:39:23.078Z,13.30
2018-05-19T03:41:50.930Z,12.83
2018-05-19T03:44:18.873Z,14.57
2018-05-19T03:46:46.754Z,15.60
2018-05-19T03:49:14.577Z,19.33
2018-05-19T03:51:42.489Z,14.70
2018-05-19T03:54:10.371Z,14.50
2018-05-19T03:56:38.263Z,16.20
2018-05-19T03:59:18.776Z,20.07
2018-05-19T04:04:51.434Z,19.50
2018-05-19T04:07:20.138Z,15.73
2018-05-19T04:09:47.973Z,15.47
2018-05-19T04:12:16.572Z,15.70
2018-05-19T04:14:45.185Z,15.70
2018-05-19T04:17:13.048Z,13.47
2018-05-19T04:19:40.985Z,14.60
2018-05-19T04:22:09.665Z,13.20
2018-05-19T04:24:38.272Z,15.23
2018-05-19T04:27:06.137Z,13.60
2018-05-19T04:29:33.996Z,14.20
2018-05-19T04:32:01.903Z,13.13
2018-05-19T04:34:29.811Z,16.33
2018-05-19T04:36:58.404Z,15.57
2018-05-19T04:39:27.023Z,13.70
2018-05-19T04:41:54.949Z,14.90
2018-05-19T04:44:23.549Z,15.00
2018-05-19T04:46:52.215Z,13.30
2018-05-19T04:49:20.866Z,14.63
2018-05-19T04:51:48.827Z,13.80
2018-05-19T04:54:16.688Z,13.20
2018-05-19T04:56:44.621Z,14.10
2018-05-19T04:59:13.253Z,12.67
2018-05-19T05:01:41.132Z,11.63
2018-05-19T05:04:09.103Z,13.30
2018-05-19T05:06:37.010Z,14.30
2018-05-19T05:09:05.668Z,12.57
2018-05-19T05:11:33.540Z,11.50
2018-05-19T05:14:01.463Z,12.50
2018-05-19T05:16:29.392Z,12.90
2018-05-19T05:18:58.033Z,11.93
2018-05-19T05:21:25.962Z,11.40
2018-05-19T05:23:53.924Z,12.33
2018-05-19T05:26:21.857Z,16.90
2018-05-19T05:28:49.851Z,11.70
2018-05-19T05:31:18.479Z,10.97
2018-05-19T05:33:46.392Z,11.53
2018-05-19T05:36:15.134Z,11.57
2018-05-19T05:38:42.981Z,13.90
2018-05-19T05:41:10.813Z,12.00
2018-05-19T05:43:39.454Z,13.00
2018-05-19T05:46:07.352Z,11.33
2018-05-19T05:48:35.211Z,13.77
2018-05-19T05:51:03.073Z,11.40
2018-05-19T05:53:30.913Z,10.47
2018-05-19T05:55:58.810Z,13.70
2018-05-19T05:58:26.710Z,10.90
2018-05-19T06:00:54.686Z,12.60
2018-05-19T06:03:22.537Z,11.10
2018-05-19T06:05:51.251Z,13.67
2018-05-19T06:08:19.088Z,10.90
2018-05-19T06:10:47.703Z,11.70
2018-05-19T06:13:15.580Z,10.67
2018-05-19T06:15:43.484Z,11.70
2018-05-19T06:18:11.456Z,11.73
2018-05-19T06:20:39.322Z,12.33
2018-05-19T06:23:07.194Z,21.53
2018-05-19T06:25:35.032Z,13.10
2018-05-19T06:28:02.983Z,15.20
2018-05-19T06:30:31.000Z,14.23
2018-05-19T06:32:58.874Z,18.10
2018-05-19T06:35:27.500Z,23.53
2018-05-19T06:37:55.328Z,18.50
2018-05-19T06:40:23.947Z,19.30
2018-05-19T06:42:51.878Z,17.93
2018-05-19T06:45:20.577Z,22.23
2018-05-19T06:47:49.175Z,20.67
2018-05-19T06:50:17.111Z,18.10
2018-05-19T06:52:45.701Z,18.50
2018-05-19T06:55:14.325Z,16.40
2018-05-19T06:57:42.187Z,16.70
2018-05-19T07:00:10.131Z,19.17
2018-05-19T07:02:37.999Z,16.43
2018-05-19T07:05:06.607Z,15.07
2018-05-19T07:07:34.477Z,16.80
2018-05-19T07:10:02.338Z,16.97
2018-05-19T07:12:30.273Z,17.30
2018-05-19T07:14:59.025Z,17.97
2018-05-19T07:17:26.963Z,17.23
2018-05-19T07:19:54.802Z,17.83
2018-05-19T07:22:22.687Z,19.90
2018-05-19T07:24:50.604Z,17.90
2018-05-19T07:27:18.553Z,21.00
2018-05-19T07:29:46.388Z,16.80
2018-05-19T07:32:14.255Z,15.67
2018-05-19T07:34:42.129Z,15.20
2018-05-19T07:37:10.534Z,15.77
2018-05-19T07:39:38.970Z,15.10
2018-05-19T07:42:06.899Z,17.43
2018-05-19T07:44:35.993Z,14.70
2018-05-19T07:47:03.905Z,15.63
2018-05-19T07:49:32.916Z,12.50
2018-05-19T07:52:00.841Z,12.43
2018-05-19T07:54:29.497Z,11.40
2018-05-19T07:56:57.457Z,11.03
2018-05-19T07:59:25.444Z,10.97
2018-05-19T08:01:53.375Z,11.97
2018-05-19T08:04:21.317Z,10.40
2018-05-19T08:06:49.221Z,9.67
2018-05-19T08:09:17.098Z,9.93
2018-05-19T08:11:45.139Z,12.93
2018-05-19T08:14:13.086Z,15.80
2018-05-19T08:16:41.719Z,10.33
2018-05-19T08:19:09.559Z,9.83
2018-05-19T08:21:37.422Z,11.10
2018-05-19T08:24:05.390Z,8.77
2018-05-19T08:26:33.338Z,10.50
2018-05-19T08:29:02.021Z,11.63
2018-05-19T08:31:30.714Z,11.13
2018-05-19T08:33:59.331Z,10.07
2018-05-19T08:36:27.227Z,9.20
2018-05-19T08:38:55.106Z,10.00
2018-05-19T08:41:23.025Z,9.43
2018-05-19T08:43:50.944Z,9.93
2018-05-19T08:46:18.889Z,8.20
2018-05-19T08:48:46.746Z,9.83
2018-05-19T08:51:14.588Z,8.93
2018-05-19T08:53:42.476Z,6.70
2018-05-19T08:56:10.353Z,8.23
2018-05-19T08:58:38.249Z,8.40
2018-05-19T09:01:06.979Z,6.70
2018-05-19T09:03:34.841Z,6.83
2018-05-19T09:06:02.712Z,6.40
2018-05-19T09:08:30.594Z,6.43
2018-05-19T09:10:58.460Z,6.73
2018-05-19T09:13:26.319Z,6.80
2018-05-19T09:15:55.961Z,7.40
2018-05-19T09:18:23.873Z,7.20
2018-05-19T09:20:51.716Z,11.43
2018-05-19T09:23:20.332Z,8.57
2018-05-19T09:25:48.317Z,8.17
2018-05-19T09:28:16.164Z,7.77
2018-05-19T09:30:44.021Z,10.40
2018-05-19T09:33:11.914Z,10.40
2018-05-19T09:35:39.892Z,10.00
2018-05-19T09:38:07.837Z,8.70
2018-05-19T09:40:35.769Z,5.53
2018-05-19T09:43:04.405Z,5.50
2018-05-19T09:45:32.228Z,6.57
2018-05-19T09:48:00.925Z,6.87
2018-05-19T09:50:28.780Z,7.80
2018-05-19T09:52:57.468Z,6.23
2018-05-19T09:55:26.132Z,12.03
2018-05-19T09:57:54.028Z,6.97
2018-05-19T10:00:22.689Z,7.77
2018-05-19T10:02:51.377Z,8.07
2018-05-19T10:05:20.025Z,6.07
2018-05-19T10:07:47.983Z,6.90
2018-05-19T10:10:15.903Z,7.00
2018-05-19T10:12:44.646Z,6.67
2018-05-19T10:15:13.167Z,8.60
2018-05-19T10:17:41.795Z,8.60
2018-05-19T10:20:09.633Z,9.57
2018-05-19T10:22:38.278Z,9.03
2018-05-19T10:25:06.205Z,9.03
2018-05-19T10:27:34.240Z,7.13
2018-05-19T10:30:02.105Z,7.23
2018-05-19T10:32:30.825Z,7.57
2018-05-19T10:34:58.717Z,7.80
2018-05-19T10:37:26.714Z,9.00
2018-05-19T10:40:02.762Z,8.73
2018-05-19T10:42:30.655Z,9.10
2018-05-19T10:44:59.265Z,9.87
2018-05-19T10:47:27.195Z,10.47
2018-05-19T10:49:55.077Z,7.20
2018-05-19T10:52:23.721Z,7.90
2018-05-19T10:54:51.605Z,9.23
2018-05-19T10:57:19.556Z,7.70
2018-05-19T10:59:48.176Z,8.13
2018-05-19T11:02:16.081Z,6.90
2018-05-19T11:04:43.971Z,8.13
2018-05-19T11:07:11.905Z,6.23
2018-05-19T11:09:39.771Z,4.53
2018-05-19T11:12:07.705Z,6.37
2018-05-19T11:14:35.659Z,8.30
2018-05-19T11:17:03.526Z,5.97
2018-05-19T11:19:31.480Z,6.23
2018-05-19T11:21:59.366Z,5.10
2018-05-19T11:24:27.222Z,6.70
2018-05-19T11:26:55.053Z,5.97
2018-05-19T11:29:22.905Z,6.50
2018-05-19T11:31:50.773Z,5.60
2018-05-19T11:34:18.644Z,6.17
2018-05-19T11:36:46.509Z,6.50
2018-05-19T11:39:14.369Z,10.30
2018-05-19T11:41:42.260Z,6.47
2018-05-19T11:44:10.124Z,6.27
2018-05-19T11:46:39.072Z,7.07
2018-05-19T11:49:06.920Z,5.73
2018-05-19T11:51:34.782Z,6.23
2018-05-19T11:54:02.642Z,6.77
2018-05-19T11:56:30.603Z,5.73
2018-05-19T11:58:58.474Z,6.33
2018-05-19T12:01:27.478Z,5.80
2018-05-19T12:03:57.790Z,16.70
2018-05-19T12:06:25.748Z,6.83
2018-05-19T12:08:53.770Z,6.93
2018-05-19T12:11:22.361Z,7.53
2018-05-19T12:13:50.998Z,5.93
2018-05-19T12:16:18.941Z,7.97
2018-05-19T12:18:46.867Z,7.37
2018-05-19T12:21:14.710Z,8.10
2018-05-19T12:23:42.584Z,6.77
2018-05-19T12:26:10.459Z,6.90
2018-05-19T12:28:38.349Z,7.77
2018-05-19T12:31:07.065Z,8.30
2018-05-19T12:33:35.025Z,10.03
2018-05-19T12:36:02.883Z,8.10
2018-05-19T12:38:30.734Z,8.70
2018-05-19T12:40:59.371Z,7.90
2018-05-19T12:43:27.227Z,7.00
2018-05-19T12:45:55.153Z,8.60
2018-05-19T12:48:23.832Z,8.90
2018-05-19T12:50:52.461Z,8.73
2018-05-19T12:53:20.329Z,6.17
2018-05-19T12:55:48.195Z,7.17
2018-05-19T12:58:16.128Z,7.53
2018-05-19T13:00:44.714Z,7.27
2018-05-19T13:03:12.620Z,6.73
2018-05-19T13:05:40.510Z,7.60
2018-05-19T13:08:08.460Z,5.90
2018-05-19T13:10:36.291Z,6.63
2018-05-19T13:13:04.253Z,6.10
2018-05-19T13:15:32.130Z,6.23
2018-05-19T13:18:00.030Z,5.93
2018-05-19T13:20:27.996Z,6.23
2018-05-19T13:22:55.816Z,7.50
2018-05-19T13:25:24.532Z,6.67
2018-05-19T13:27:52.407Z,6.23
2018-05-19T13:30:20.343Z,6.37
2018-05-19T13:32:48.297Z,6.17
2018-05-19T13:35:16.954Z,7.63
2018-05-19T13:37:44.858Z,5.70
2018-05-19T13:40:13.476Z,7.07
2018-05-19T13:42:41.433Z,7.63
2018-05-19T13:45:09.280Z,8.70
2018-05-19T13:47:37.971Z,8.10
2018-05-19T13:50:05.817Z,6.33
2018-05-19T13:52:34.432Z,6.20
2018-05-19T13:55:03.205Z,5.40
2018-05-19T13:57:31.054Z,4.93
2018-05-19T13:59:59.667Z,7.60
2018-05-19T14:02:27.517Z,7.13
2018-05-19T14:04:56.264Z,7.23
2018-05-19T14:07:24.113Z,8.10
2018-05-19T14:09:51.960Z,6.70
2018-05-19T14:12:19.803Z,5.30
2018-05-19T14:14:47.645Z,5.17
2018-05-19T14:17:16.356Z,4.87
2018-05-19T14:19:44.238Z,5.73
2018-05-19T14:22:12.136Z,5.93
2018-05-19T14:24:39.973Z,5.40
2018-05-19T14:27:07.854Z,5.30
2018-05-19T14:29:35.780Z,8.17
2018-05-19T14:32:04.499Z,7.40
2018-05-19T14:34:32.333Z,6.07
2018-05-19T14:37:01.048Z,10.30
2018-05-19T14:39:28.899Z,7.00
2018-05-19T14:41:56.761Z,6.33
2018-05-19T14:44:25.425Z,6.60
2018-05-19T14:46:53.276Z,5.70
2018-05-19T14:49:21.206Z,6.47
2018-05-19T14:51:49.082Z,5.23
2018-05-19T14:54:17.023Z,6.00
2018-05-19T14:56:44.880Z,5.10
2018-05-19T14:59:13.592Z,4.93
2018-05-19T15:01:41.494Z,6.13
2018-05-19T15:04:09.380Z,4.60
2018-05-19T15:06:38.093Z,7.13
2018-05-19T15:09:06.071Z,5.00
2018-05-19T15:11:33.970Z,6.53
2018-05-19T15:14:01.927Z,5.60
2018-05-19T15:16:29.841Z,5.43
2018-05-19T15:18:58.487Z,5.40
2018-05-19T15:21:26.370Z,6.73
2018-05-19T15:23:54.279Z,6.57
2018-05-19T15:26:22.202Z,7.33
2018-05-19T15:28:50.048Z,4.20
2018-05-19T15:31:17.957Z,4.70
2018-05-19T15:33:45.805Z,6.67
2018-05-19T15:36:14.821Z,5.40
2018-05-19T15:38:43.784Z,4.60
2018-05-19T15:41:11.676Z,7.17
2018-05-19T15:43:39.609Z,7.13
2018-05-19T15:46:07.500Z,4.93
2018-05-19T15:48:35.447Z,5.13
2018-05-19T15:51:03.280Z,5.17
2018-05-19T15:53:31.104Z,4.87
2018-05-19T15:55:59.097Z,4.63
2018-05-19T15:58:27.701Z,4.70
2018-05-19T16:00:55.593Z,4.63
2018-05-19T16:03:23.466Z,4.30
2018-05-19T16:05:51.418Z,4.50
2018-05-19T16:08:20.455Z,6.93
2018-05-19T16:10:48.337Z,6.20
2018-05-19T16:13:16.965Z,9.03
2018-05-19T16:15:44.864Z,4.87
2018-05-19T16:18:12.741Z,5.97
2018-05-19T16:20:40.646Z,5.50
2018-05-19T16:23:08.591Z,5.00
2018-05-19T16:25:37.331Z,7.20
2018-05-19T16:28:05.200Z,4.83
2018-05-19T16:30:33.135Z,4.33
2018-05-19T16:33:01.010Z,4.10
2018-05-19T16:35:28.960Z,5.07
2018-05-19T16:37:56.780Z,4.40
2018-05-19T16:40:24.689Z,5.20
2018-05-19T16:42:53.313Z,4.80
2018-05-19T16:45:21.193Z,4.37
2018-05-19T16:47:49.057Z,4.07
2018-05-19T16:50:16.937Z,4.43
2018-05-19T16:52:44.843Z,4.10
2018-05-19T16:55:13.487Z,3.27
2018-05-19T16:57:41.339Z,4.83
2018-05-19T17:00:09.278Z,6.20
2018-05-19T17:02:37.212Z,5.20
2018-05-19T17:05:05.863Z,5.50
2018-05-19T17:07:33.809Z,4.30
2018-05-19T17:10:01.671Z,4.17
2018-05-19T17:12:29.561Z,6.70
2018-05-19T17:14:57.513Z,4.20
2018-05-19T17:17:25.418Z,3.63
2018-05-19T17:19:53.318Z,5.70
2018-05-19T17:22:21.921Z,4.27
2018-05-19T17:24:49.736Z,4.70
2018-05-19T17:27:17.644Z,6.20
2018-05-19T17:29:45.501Z,5.20
2018-05-19T17:32:14.219Z,4.43
2018-05-19T17:34:42.229Z,4.53
2018-05-19T17:37:10.121Z,3.50
2018-05-19T17:39:38.758Z,3.30
2018-05-19T17:42:07.424Z,3.53
2018-05-19T17:44:35.284Z,3.57
2018-05-19T17:47:03.200Z,4.50
2018-05-19T17:49:31.133Z,3.13
2018-05-19T17:51:58.986Z,3.73
2018-05-19T17:54:26.861Z,3.37
2018-05-19T17:56:54.734Z,4.83
2018-05-19T17:59:22.674Z,2.23
2018-05-19T18:01:50.529Z,3.67
2018-05-19T18:04:19.144Z,3.33
2018-05-19T18:06:46.988Z,3.90
2018-05-19T18:09:14.824Z,3.63
2018-05-19T18:11:42.721Z,5.80
2018-05-19T18:14:10.579Z,4.73
2018-05-19T18:16:39.224Z,3.47
2018-05-19T18:19:07.119Z,3.40
2018-05-19T18:21:35.828Z,3.57
2018-05-19T18:24:03.754Z,4.60
2018-05-19T18:26:31.566Z,4.90
2018-05-19T18:28:59.483Z,3.90
2018-05-19T18:31:27.362Z,4.60
2018-05-19T18:33:55.233Z,3.60
2018-05-19T18:36:23.890Z,2.60
2018-05-19T18:38:52.589Z,3.27
2018-05-19T18:41:20.474Z,3.73
2018-05-19T18:43:49.089Z,3.70
2018-05-19T18:46:16.904Z,5.30
2018-05-19T18:48:44.832Z,3.00
2018-05-19T18:51:12.750Z,3.47
2018-05-19T18:53:40.584Z,3.03
2018-05-19T18:56:08.460Z,4.40
2018-05-19T18:58:36.381Z,2.80
2018-05-19T19:01:04.259Z,5.80
2018-05-19T19:03:32.121Z,3.20
2018-05-19T19:06:00.007Z,3.20
2018-05-19T19:08:27.945Z,3.40
2018-05-19T19:10:55.807Z,6.23
2018-05-19T19:13:24.445Z,6.20
2018-05-19T19:15:52.265Z,3.73
2018-05-19T19:18:20.150Z,3.90
2018-05-19T19:20:47.969Z,2.57
2018-05-19T19:23:15.819Z,3.10
2018-05-19T19:25:43.670Z,5.10
2018-05-19T19:28:11.556Z,7.33
2018-05-19T19:30:39.424Z,7.13
2018-05-19T19:33:07.273Z,5.87
2018-05-19T19:35:35.173Z,4.80
2018-05-19T19:38:03.928Z,7.03
2018-05-19T19:40:31.811Z,4.83
2018-05-19T19:43:00.524Z,5.80
2018-05-19T19:45:28.424Z,5.40
2018-05-19T19:47:56.338Z,4.40
2018-05-19T19:50:24.168Z,8.07
2018-05-19T19:52:52.027Z,4.70
2018-05-19T19:55:19.879Z,5.63
2018-05-19T19:57:47.733Z,5.30
2018-05-19T20:00:15.581Z,4.93
2018-05-19T20:02:44.191Z,4.30
2018-05-19T20:05:12.129Z,4.67
2018-05-19T20:07:40.751Z,4.80
2018-05-19T20:10:08.713Z,7.43
2018-05-19T20:12:36.569Z,4.10
2018-05-19T20:15:04.571Z,5.93
2018-05-19T20:17:32.494Z,4.93
2018-05-19T20:20:01.104Z,5.70
2018-05-19T20:22:28.954Z,7.03
2018-05-19T20:24:57.619Z,5.00
2018-05-19T20:27:26.334Z,5.40
2018-05-19T20:29:54.929Z,7.53
2018-05-19T20:32:22.824Z,7.90
2018-05-19T20:34:50.809Z,7.03
2018-05-19T20:37:18.724Z,5.73
2018-05-19T20:39:46.564Z,7.73
2018-05-19T20:42:15.191Z,5.37
2018-05-19T20:44:43.034Z,7.60
2018-05-19T20:47:10.997Z,5.63
2018-05-19T20:49:38.914Z,9.00
2018-05-19T20:52:06.852Z,7.60
2018-05-19T20:54:34.809Z,6.00
2018-05-19T20:57:02.715Z,6.97
2018-05-19T20:59:30.609Z,6.63
2018-05-19T21:01:58.444Z,7.80
2018-05-19T21:04:26.386Z,7.97
2018-05-19T21:06:54.213Z,5.20
2018-05-19T21:09:22.068Z,6.80
2018-05-19T21:11:49.947Z,6.10
2018-05-19T21:14:18.642Z,6.57
2018-05-19T21:16:47.325Z,6.30
2018-05-19T21:19:16.024Z,8.57
2018-05-19T21:21:44.635Z,7.43
2018-05-19T21:24:12.570Z,6.80
2018-05-19T21:26:41.196Z,6.93
2018-05-19T21:29:09.075Z,8.10
2018-05-19T21:31:36.949Z,7.40
2018-05-19T21:34:04.821Z,14.60
2018-05-19T21:36:32.752Z,6.33
2018-05-19T21:39:00.597Z,5.80
2018-05-19T21:41:30.066Z,9.00
2018-05-19T21:43:57.959Z,6.87
2018-05-19T21:46:26.603Z,6.17
2018-05-19T21:48:54.530Z,7.83
2018-05-19T21:51:22.444Z,6.90
2018-05-19T21:53:50.358Z,6.20
2018-05-19T21:56:18.260Z,7.20
2018-05-19T21:58:46.117Z,6.43
2018-05-19T22:01:14.011Z,8.50
2018-05-19T22:03:41.834Z,8.60
2018-05-19T22:06:09.876Z,10.83
2018-05-19T22:08:38.525Z,7.23
2018-05-19T22:11:07.154Z,10.30
2018-05-19T22:13:35.782Z,8.50
2018-05-19T22:16:03.667Z,11.20
2018-05-19T22:18:31.647Z,10.37
2018-05-19T22:20:59.539Z,7.77
2018-05-19T22:23:28.141Z,8.23
2018-05-19T22:25:55.993Z,6.93
2018-05-19T22:28:24.628Z,9.93
2018-05-19T22:30:52.585Z,10.23
2018-05-19T22:33:20.541Z,8.97
2018-05-19T22:35:48.472Z,9.73
2018-05-19T22:38:17.121Z,8.00
2018-05-19T22:40:44.973Z,6.27
2018-05-19T22:43:12.851Z,11.80
2018-05-19T22:45:40.736Z,7.73
2018-05-19T22:48:08.557Z,8.70
2018-05-19T22:50:36.403Z,7.70
2018-05-19T22:53:05.052Z,7.13
2018-05-19T22:55:32.911Z,9.90
2018-05-19T22:58:00.785Z,7.83
2018-05-19T23:00:28.617Z,9.73
2018-05-19T23:02:56.492Z,8.30
2018-05-19T23:05:24.413Z,7.87
2018-05-19T23:07:53.100Z,8.43
2018-05-19T23:10:21.808Z,10.37
2018-05-19T23:12:49.653Z,11.30
2018-05-19T23:15:18.361Z,8.37
2018-05-19T23:17:46.277Z,9.57
2018-05-19T23:20:14.137Z,8.67
2018-05-19T23:22:42.076Z,7.13
2018-05-19T23:25:10.006Z,7.07
2018-05-19T23:27:38.623Z,7.30
2018-05-19T23:30:06.587Z,10.90
2018-05-19T23:32:34.454Z,10.27
2018-05-19T23:35:02.409Z,10.10
2018-05-19T23:37:30.331Z,12.93
2018-05-19T23:39:58.261Z,12.00
2018-05-19T23:42:26.146Z,11.73
2018-05-19T23:44:54.084Z,10.73
2018-05-19T23:47:22.028Z,14.53
2018-05-19T23:49:50.676Z,10.40
2018-05-19T23:52:18.576Z,10.63
2018-05-19T23:54:47.241Z,7.97
2018-05-19T23:57:15.171Z,9.60
2018-05-19T23:59:43.106Z,8.43
